createdAt,value
2022-11-17T00:00:43.416Z,96784.91
2022-11-17T00:03:19.678Z,96775.47
2022-11-17T00:05:46.967Z,96768.56
2022-11-17T00:08:14.258Z,96750.28
2022-11-17T00:10:41.531Z,96742.63
2022-11-17T00:13:29.749Z,96745.00
2022-11-17T00:15:57.073Z,96741.25
2022-11-17T00:18:43.643Z,96719.19
2022-11-17T00:21:19.166Z,96727.91
2022-11-17T00:23:50.374Z,96710.69
2022-11-17T00:26:25.595Z,96715.53
2022-11-17T00:29:04.491Z,96694.75
2022-11-17T00:31:52.851Z,96694.75
2022-11-17T00:34:23.433Z,96684.22
2022-11-17T00:36:55.328Z,96666.13
2022-11-17T00:39:24.948Z,96672.03
2022-11-17T00:41:52.224Z,96663.38
2022-11-17T00:44:19.780Z,96649.53
2022-11-17T00:46:47.232Z,96655.88
2022-11-17T00:49:17.355Z,96647.59
2022-11-17T00:51:44.611Z,96629.91
2022-11-17T00:54:13.953Z,96635.44
2022-11-17T00:56:41.455Z,96633.84
2022-11-17T00:59:08.807Z,96636.81
2022-11-17T01:01:37.286Z,96627.81
2022-11-17T01:04:05.863Z,96599.00
2022-11-17T01:06:45.177Z,96595.94
2022-11-17T01:09:23.607Z,96604.75
2022-11-17T01:11:53.916Z,96593.28
2022-11-17T01:14:28.517Z,96602.00
2022-11-17T01:16:56.104Z,96588.09
2022-11-17T01:19:24.713Z,96591.09
2022-11-17T01:21:52.043Z,96576.75
2022-11-17T01:24:20.175Z,96585.09
2022-11-17T01:26:49.599Z,96592.84
2022-11-17T01:29:17.466Z,96608.19
2022-11-17T01:31:49.186Z,96592.84
2022-11-17T01:34:16.440Z,96605.91
2022-11-17T01:37:03.642Z,96619.44
2022-11-17T01:39:31.976Z,96606.44
2022-11-17T01:42:17.268Z,96614.09
2022-11-17T01:45:25.099Z,96626.97
2022-11-17T01:48:02.603Z,96624.50
2022-11-17T01:50:37.278Z,96621.19
2022-11-17T01:53:17.370Z,96628.81
2022-11-17T01:55:56.228Z,96622.19
2022-11-17T01:58:35.283Z,96622.88
2022-11-17T02:01:02.876Z,96622.34
2022-11-17T02:03:35.790Z,96617.25
2022-11-17T02:06:20.543Z,96624.66
2022-11-17T02:08:51.371Z,96630.63
2022-11-17T02:11:20.983Z,96639.50
2022-11-17T02:13:51.819Z,96640.59
2022-11-17T02:16:19.110Z,96650.34
2022-11-17T02:18:48.523Z,96648.97
2022-11-17T02:22:20.148Z,96634.88
2022-11-17T02:25:27.376Z,96617.19
2022-11-17T02:28:24.603Z,96598.13
2022-11-17T02:31:08.497Z,96592.28
2022-11-17T02:34:18.736Z,96579.78
2022-11-17T02:37:15.576Z,96592.59
2022-11-17T02:40:01.199Z,96580.59
2022-11-17T02:43:02.225Z,96572.34
2022-11-17T02:46:02.483Z,96567.50
2022-11-17T02:48:41.316Z,96565.28
2022-11-17T02:51:18.918Z,96569.69
2022-11-17T02:53:46.767Z,96568.38
2022-11-17T02:56:14.042Z,96563.47
2022-11-17T02:58:41.380Z,96558.06
2022-11-17T03:02:00.052Z,96548.59
2022-11-17T03:05:14.495Z,96543.34
2022-11-17T03:08:39.705Z,96552.75
2022-11-17T03:11:09.395Z,96543.09
2022-11-17T03:14:06.982Z,96551.16
2022-11-17T03:17:27.253Z,96554.84
2022-11-17T03:20:31.107Z,96554.53
2022-11-17T03:23:24.529Z,96560.97
2022-11-17T03:25:58.059Z,96562.47
2022-11-17T03:28:31.513Z,96553.19
2022-11-17T03:31:01.538Z,96564.44
2022-11-17T03:33:30.142Z,96553.88
2022-11-17T03:36:22.565Z,96559.34
2022-11-17T03:39:08.262Z,96571.69
2022-11-17T03:41:43.801Z,96566.56
2022-11-17T03:44:13.755Z,96563.09
2022-11-17T03:46:45.401Z,96566.81
2022-11-17T03:50:03.846Z,96569.94
2022-11-17T03:52:32.059Z,96568.78
2022-11-17T03:55:00.302Z,96568.56
2022-11-17T03:58:01.779Z,96587.78
2022-11-17T04:00:29.133Z,96587.78
2022-11-17T04:03:00.619Z,96584.34
2022-11-17T04:05:28.138Z,96592.03
2022-11-17T04:07:55.443Z,96599.09
2022-11-17T04:10:26.283Z,96602.41
2022-11-17T04:13:13.186Z,96601.50
2022-11-17T04:15:59.247Z,96609.78
2022-11-17T04:18:27.117Z,96615.88
2022-11-17T04:20:57.247Z,96621.47
2022-11-17T04:23:26.253Z,96625.41
2022-11-17T04:26:15.226Z,96628.47
2022-11-17T04:28:50.263Z,96634.00
2022-11-17T04:31:23.549Z,96627.75
2022-11-17T04:33:56.713Z,96644.41
2022-11-17T04:36:44.898Z,96669.19
2022-11-17T04:39:14.811Z,96683.03
2022-11-17T04:41:56.860Z,96679.53
2022-11-17T04:44:31.340Z,96652.72
2022-11-17T04:46:59.198Z,96653.69
2022-11-17T04:49:27.173Z,96682.75
2022-11-17T04:51:55.591Z,96689.16
2022-11-17T04:54:24.986Z,96705.84
2022-11-17T04:56:54.614Z,96717.47
2022-11-17T04:59:22.623Z,96721.75
2022-11-17T05:01:50.203Z,96712.31
2022-11-17T05:04:39.795Z,96704.63
2022-11-17T05:07:09.164Z,96699.91
2022-11-17T05:09:37.066Z,96730.41
2022-11-17T05:12:28.371Z,96703.66
2022-11-17T05:14:56.038Z,96681.47
2022-11-17T05:17:23.292Z,96686.38
2022-11-17T05:19:50.775Z,96674.81
2022-11-17T05:22:42.016Z,96669.16
2022-11-17T05:25:10.538Z,96669.84
2022-11-17T05:27:38.270Z,96676.09
2022-11-17T05:30:08.700Z,96684.63
2022-11-17T05:32:35.975Z,96680.66
2022-11-17T05:35:03.839Z,96679.72
2022-11-17T05:37:31.111Z,96670.25
2022-11-17T05:39:58.415Z,96676.59
2022-11-17T05:42:25.773Z,96694.00
2022-11-17T05:44:53.034Z,96691.75
2022-11-17T05:47:20.346Z,96685.47
2022-11-17T05:49:47.611Z,96678.56
2022-11-17T05:52:14.893Z,96671.41
2022-11-17T05:54:42.227Z,96674.00
2022-11-17T05:57:22.976Z,96664.28
2022-11-17T06:00:00.623Z,96659.44
2022-11-17T06:02:42.404Z,96652.19
2022-11-17T06:05:14.430Z,96654.88
2022-11-17T06:07:44.548Z,96656.47
2022-11-17T06:10:11.838Z,96647.81
2022-11-17T06:12:39.104Z,96654.72
2022-11-17T06:15:07.201Z,96660.50
2022-11-17T06:18:12.815Z,96660.41
2022-11-17T06:20:48.505Z,96668.09
2022-11-17T06:23:18.558Z,96662.69
2022-11-17T06:25:46.388Z,96659.59
2022-11-17T06:28:19.379Z,96634.34
2022-11-17T06:30:47.162Z,96643.00
2022-11-17T06:33:17.552Z,96652.53
2022-11-17T06:35:46.604Z,96654.81
2022-11-17T06:38:13.933Z,96661.50
2022-11-17T06:40:41.281Z,96670.81
2022-11-17T06:43:09.533Z,96676.63
2022-11-17T06:45:46.528Z,96688.34
2022-11-17T06:48:18.990Z,96694.75
2022-11-17T06:50:49.022Z,96690.72
2022-11-17T06:53:16.372Z,96695.88
2022-11-17T06:55:48.925Z,96693.91
2022-11-17T06:58:16.221Z,96697.66
2022-11-17T07:00:43.624Z,96696.72
2022-11-17T07:03:11.498Z,96708.66
2022-11-17T07:05:40.442Z,96719.94
2022-11-17T07:08:09.374Z,96723.13
2022-11-17T07:10:37.935Z,96725.00
2022-11-17T07:13:05.262Z,96728.78
2022-11-17T07:15:32.633Z,96732.25
2022-11-17T07:17:59.977Z,96739.41
2022-11-17T07:20:27.458Z,96740.69
2022-11-17T07:23:00.146Z,96740.41
2022-11-17T07:25:27.468Z,96756.09
2022-11-17T07:28:00.356Z,96772.84
2022-11-17T07:30:27.782Z,96784.63
2022-11-17T07:32:55.213Z,96782.19
2022-11-17T07:35:22.568Z,96780.91
2022-11-17T07:37:49.906Z,96785.50
2022-11-17T07:40:17.382Z,96782.78
2022-11-17T07:42:51.198Z,96787.75
2022-11-17T07:45:18.525Z,96793.88
2022-11-17T07:47:46.861Z,96797.44
2022-11-17T07:50:17.873Z,96794.19
2022-11-17T07:52:55.242Z,96803.41
2022-11-17T07:55:24.629Z,96809.38
2022-11-17T07:57:58.785Z,96811.13
2022-11-17T08:00:29.971Z,96816.94
2022-11-17T08:03:03.668Z,96818.22
2022-11-17T08:05:41.702Z,96834.75
2022-11-17T08:08:10.820Z,96826.97
2022-11-17T08:10:38.178Z,96841.00
2022-11-17T08:13:06.282Z,96862.63
2022-11-17T08:15:33.622Z,96856.50
2022-11-17T08:18:01.771Z,96846.84
2022-11-17T08:20:30.016Z,96851.00
2022-11-17T08:22:57.767Z,96846.50
2022-11-17T08:25:27.331Z,96876.13
2022-11-17T08:27:58.549Z,96884.00
2022-11-17T08:30:29.428Z,96885.28
2022-11-17T08:32:56.795Z,96899.19
2022-11-17T08:35:26.628Z,96880.25
2022-11-17T08:37:54.507Z,96909.69
2022-11-17T08:40:22.065Z,96941.09
2022-11-17T08:43:00.437Z,96893.72
2022-11-17T08:45:28.484Z,96901.88
2022-11-17T08:47:57.354Z,96902.00
2022-11-17T08:50:24.702Z,96907.84
2022-11-17T08:52:53.461Z,96901.81
2022-11-17T08:55:20.915Z,96910.09
2022-11-17T08:57:48.406Z,96902.97
2022-11-17T09:00:19.812Z,96911.56
2022-11-17T09:02:47.289Z,96899.25
2022-11-17T09:05:14.727Z,96893.69
2022-11-17T09:07:42.071Z,96894.88
2022-11-17T09:10:11.159Z,96903.75
2022-11-17T09:12:38.721Z,96901.66
2022-11-17T09:15:07.373Z,96907.69
2022-11-17T09:17:34.687Z,96899.75
2022-11-17T09:20:02.430Z,96906.00
2022-11-17T09:22:29.755Z,96904.28
2022-11-17T09:24:57.057Z,96901.88
2022-11-17T09:27:24.354Z,96892.72
2022-11-17T09:29:51.694Z,96882.16
2022-11-17T09:32:20.771Z,96877.47
2022-11-17T09:34:48.112Z,96881.16
2022-11-17T09:37:15.462Z,96870.22
2022-11-17T09:39:42.815Z,96869.50
2022-11-17T09:42:18.049Z,96863.03
2022-11-17T09:45:09.468Z,96867.66
2022-11-17T09:48:33.553Z,96867.06
2022-11-17T09:50:57.860Z,96864.03
2022-11-17T09:54:03.477Z,96853.44
2022-11-17T09:56:31.778Z,96867.34
2022-11-17T09:59:04.880Z,96852.03
2022-11-17T10:01:32.517Z,96851.97
2022-11-17T10:04:01.393Z,96858.16
2022-11-17T10:06:31.905Z,96854.28
2022-11-17T10:09:42.339Z,96858.38
2022-11-17T10:12:27.532Z,96855.06
2022-11-17T10:14:55.536Z,96850.44
2022-11-17T10:17:22.820Z,96848.09
2022-11-17T10:19:50.216Z,96844.19
2022-11-17T10:22:36.314Z,96843.19
2022-11-17T10:25:04.123Z,96842.03
2022-11-17T10:27:34.330Z,96842.59
2022-11-17T10:30:15.013Z,96844.63
2022-11-17T10:33:00.952Z,96836.19
2022-11-17T10:35:34.016Z,96842.09
2022-11-17T10:38:22.937Z,96844.50
2022-11-17T10:40:52.700Z,96840.56
2022-11-17T10:43:34.306Z,96834.34
2022-11-17T10:46:16.699Z,96843.28
2022-11-17T10:49:05.048Z,96837.34
2022-11-17T10:51:34.685Z,96836.25
2022-11-17T10:54:16.929Z,96841.09
2022-11-17T10:56:52.422Z,96846.25
2022-11-17T10:59:53.453Z,96840.16
2022-11-17T11:02:34.698Z,96832.19
2022-11-17T11:05:21.242Z,96834.53
2022-11-17T11:07:48.543Z,96834.09
2022-11-17T11:10:35.106Z,96830.19
2022-11-17T11:13:21.525Z,96832.38
2022-11-17T11:15:48.852Z,96827.00
2022-11-17T11:18:19.899Z,96824.78
2022-11-17T11:21:47.095Z,96829.25
2022-11-17T11:24:59.809Z,96809.56
2022-11-17T11:27:46.574Z,96811.59
2022-11-17T11:30:18.527Z,96803.59
2022-11-17T11:33:44.929Z,96794.78
2022-11-17T11:36:39.981Z,96796.47
2022-11-17T11:39:40.201Z,96796.69
2022-11-17T11:42:49.625Z,96788.50
2022-11-17T11:45:51.164Z,96792.44
2022-11-17T11:48:28.284Z,96797.47
2022-11-17T11:51:18.878Z,96794.44
2022-11-17T11:53:59.020Z,96793.47
2022-11-17T11:56:46.920Z,96791.50
2022-11-17T11:59:43.314Z,96791.72
2022-11-17T12:02:13.982Z,96788.00
2022-11-17T12:05:37.768Z,96778.19
2022-11-17T12:08:39.845Z,96793.03
2022-11-17T12:11:36.307Z,96796.34
2022-11-17T12:14:06.960Z,96785.75
2022-11-17T12:16:36.440Z,96791.44
2022-11-17T12:19:54.077Z,96787.63
2022-11-17T12:22:29.871Z,96786.09
2022-11-17T12:25:29.890Z,96784.97
2022-11-17T12:27:57.637Z,96793.56
2022-11-17T12:30:34.031Z,96787.16
2022-11-17T12:33:08.443Z,96790.16
2022-11-17T12:35:39.792Z,96785.31
2022-11-17T12:38:16.410Z,96788.53
2022-11-17T12:40:51.331Z,96776.22
2022-11-17T12:43:29.859Z,96786.69
2022-11-17T12:46:00.744Z,96793.38
2022-11-17T12:48:39.407Z,96787.50
2022-11-17T12:51:23.503Z,96811.88
2022-11-17T12:54:24.978Z,96784.88
2022-11-17T12:57:18.021Z,96781.78
2022-11-17T13:00:23.651Z,96791.72
2022-11-17T13:03:25.537Z,96793.78
2022-11-17T13:06:37.715Z,96803.31
2022-11-17T13:09:12.708Z,96798.38
2022-11-17T13:11:39.986Z,96789.72
2022-11-17T13:14:17.334Z,96788.00
2022-11-17T13:16:51.182Z,96787.56
2022-11-17T13:19:41.436Z,96791.75
2022-11-17T13:22:18.801Z,96780.53
2022-11-17T13:24:50.434Z,96782.47
2022-11-17T13:27:31.526Z,96785.22
2022-11-17T13:30:23.603Z,96788.59
2022-11-17T13:32:51.311Z,96786.94
2022-11-17T13:35:28.472Z,96795.63
2022-11-17T13:38:12.100Z,96772.63
2022-11-17T13:40:41.886Z,96778.88
2022-11-17T13:43:19.797Z,96750.00
2022-11-17T13:45:49.678Z,96767.16
2022-11-17T13:48:46.090Z,96756.88
2022-11-17T13:51:39.417Z,96768.47
2022-11-17T13:54:17.869Z,96766.22
2022-11-17T13:56:47.937Z,96751.59
2022-11-17T13:59:32.509Z,96744.81
2022-11-17T14:02:20.887Z,96757.81
2022-11-17T14:05:15.040Z,96743.00
2022-11-17T14:07:45.017Z,96748.31
2022-11-17T14:10:20.950Z,96744.38
2022-11-17T14:13:02.755Z,96751.84
2022-11-17T14:15:36.312Z,96741.00
2022-11-17T14:18:28.091Z,96737.53
2022-11-17T14:21:17.321Z,96737.38
2022-11-17T14:23:45.674Z,96750.19
2022-11-17T14:26:25.009Z,96743.09
2022-11-17T14:28:53.281Z,96727.31
2022-11-17T14:31:20.599Z,96719.44
2022-11-17T14:33:48.185Z,96716.03
2022-11-17T14:36:18.014Z,96714.31
2022-11-17T14:38:46.797Z,96712.06
2022-11-17T14:41:18.807Z,96715.34
2022-11-17T14:43:46.871Z,96710.22
2022-11-17T14:46:26.969Z,96712.22
2022-11-17T14:48:55.736Z,96708.41
2022-11-17T14:51:23.062Z,96711.19
2022-11-17T14:53:50.500Z,96707.13
2022-11-17T14:56:21.741Z,96710.66
2022-11-17T14:58:59.393Z,96703.72
2022-11-17T15:01:34.739Z,96695.91
2022-11-17T15:04:27.001Z,96691.69
2022-11-17T15:06:53.344Z,96689.50
2022-11-17T15:09:20.733Z,96683.28
2022-11-17T15:11:48.278Z,96680.69
2022-11-17T15:14:15.943Z,96688.63
2022-11-17T15:16:44.245Z,96679.22
2022-11-17T15:19:13.083Z,96671.09
2022-11-17T15:21:40.472Z,96685.31
2022-11-17T15:24:09.233Z,96683.88
2022-11-17T15:26:36.896Z,96682.06
2022-11-17T15:29:04.418Z,96678.00
2022-11-17T15:31:31.783Z,96680.47
2022-11-17T15:34:00.879Z,96676.50
2022-11-17T15:36:31.848Z,96667.66
2022-11-17T15:38:59.141Z,96666.38
2022-11-17T15:41:32.422Z,96656.19
2022-11-17T15:44:01.268Z,96664.69
2022-11-17T15:46:28.645Z,96656.28
2022-11-17T15:48:56.597Z,96647.28
2022-11-17T15:51:28.030Z,96652.72
2022-11-17T15:54:03.162Z,96649.88
2022-11-17T15:56:38.447Z,96656.91
2022-11-17T15:59:06.702Z,96666.28
2022-11-17T16:01:40.637Z,96682.78
2022-11-17T16:04:13.228Z,96679.38
2022-11-17T16:06:44.166Z,96672.53
2022-11-17T16:09:12.481Z,96685.72
2022-11-17T16:11:40.645Z,96689.19
2022-11-17T16:14:08.317Z,96705.56
2022-11-17T16:16:39.238Z,96692.44
2022-11-17T16:19:06.940Z,96695.09
2022-11-17T16:21:34.390Z,96698.53
2022-11-17T16:24:02.308Z,96737.78
2022-11-17T16:26:30.506Z,96786.63
2022-11-17T16:29:06.353Z,96781.84
2022-11-17T16:31:38.648Z,96746.69
2022-11-17T16:34:15.907Z,96739.78
2022-11-17T16:36:45.485Z,96760.56
2022-11-17T16:39:17.793Z,96766.41
2022-11-17T16:41:46.084Z,96789.13
2022-11-17T16:44:18.437Z,96811.09
2022-11-17T16:46:49.851Z,96804.47
2022-11-17T16:49:20.454Z,96796.00
2022-11-17T16:51:56.705Z,96764.38
2022-11-17T16:54:24.045Z,96749.94
2022-11-17T16:56:51.373Z,96736.69
2022-11-17T16:59:19.113Z,96713.72
2022-11-17T17:01:47.582Z,96713.91
2022-11-17T17:04:14.985Z,96699.09
2022-11-17T17:06:45.124Z,96719.13
2022-11-17T17:09:15.226Z,96743.09
2022-11-17T17:11:42.894Z,96759.50
2022-11-17T17:14:14.959Z,96765.72
2022-11-17T17:16:43.014Z,96759.97
2022-11-17T17:19:14.514Z,96772.13
2022-11-17T17:21:44.040Z,96772.56
2022-11-17T17:24:11.497Z,96785.03
2022-11-17T17:26:40.252Z,96796.88
2022-11-17T17:29:08.466Z,96788.19
2022-11-17T17:31:41.236Z,96795.03
2022-11-17T17:34:11.495Z,96796.00
2022-11-17T17:36:38.857Z,96786.75
2022-11-17T17:39:07.884Z,96785.81
2022-11-17T17:41:40.889Z,96797.25
2022-11-17T17:44:13.176Z,96799.81
2022-11-17T17:46:42.767Z,96817.19
2022-11-17T17:49:11.274Z,96834.97
2022-11-17T17:51:44.239Z,96840.19
2022-11-17T17:54:23.979Z,96854.59
2022-11-17T17:56:52.210Z,96856.72
2022-11-17T17:59:19.996Z,96832.09
2022-11-17T18:01:48.134Z,96845.97
2022-11-17T18:04:16.887Z,96849.00
2022-11-17T18:06:49.026Z,96856.50
2022-11-17T18:09:19.716Z,96831.75
2022-11-17T18:11:50.307Z,96839.09
2022-11-17T18:14:23.889Z,96837.22
2022-11-17T18:16:52.479Z,96808.31
2022-11-17T18:19:20.248Z,96807.72
2022-11-17T18:21:48.345Z,96803.41
2022-11-17T18:24:15.651Z,96798.16
2022-11-17T18:26:43.023Z,96807.53
2022-11-17T18:29:18.607Z,96817.09
2022-11-17T18:31:47.828Z,96844.38
2022-11-17T18:34:23.464Z,96854.19
2022-11-17T18:36:55.515Z,96863.94
2022-11-17T18:39:23.507Z,96865.94
2022-11-17T18:41:50.822Z,96864.44
2022-11-17T18:44:19.757Z,96856.72
2022-11-17T18:46:47.534Z,96841.72
2022-11-17T18:49:15.172Z,96837.81
2022-11-17T18:51:42.725Z,96838.31
2022-11-17T18:54:13.349Z,96824.81
2022-11-17T18:56:40.964Z,96792.97
2022-11-17T18:59:12.017Z,96781.81
2022-11-17T19:01:43.023Z,96781.41
2022-11-17T19:04:14.679Z,96774.50
2022-11-17T19:06:42.744Z,96775.03
2022-11-17T19:09:11.078Z,96782.84
2022-11-17T19:11:38.445Z,96778.22
2022-11-17T19:14:05.860Z,96777.34
2022-11-17T19:16:42.547Z,96779.56
2022-11-17T19:19:13.447Z,96798.22
2022-11-17T19:21:41.122Z,96789.22
2022-11-17T19:24:09.019Z,96786.22
2022-11-17T19:26:36.933Z,96773.16
2022-11-17T19:29:15.619Z,96769.22
2022-11-17T19:31:43.261Z,96756.72
2022-11-17T19:34:10.733Z,96767.06
2022-11-17T19:36:38.046Z,96770.34
2022-11-17T19:39:05.527Z,96776.69
2022-11-17T19:41:38.547Z,96798.25
2022-11-17T19:44:08.888Z,96792.53
2022-11-17T19:46:37.169Z,96791.22
2022-11-17T19:49:07.618Z,96795.19
2022-11-17T19:51:38.159Z,96803.88
2022-11-17T19:54:09.456Z,96793.97
2022-11-17T19:56:38.375Z,96793.97
2022-11-17T19:59:09.706Z,96789.53
2022-11-17T20:01:39.890Z,96792.34
2022-11-17T20:04:07.396Z,96795.09
2022-11-17T20:06:38.846Z,96803.13
2022-11-17T20:09:13.797Z,96804.31
2022-11-17T20:11:41.825Z,96805.09
2022-11-17T20:14:09.337Z,96800.84
2022-11-17T20:16:38.768Z,96800.69
2022-11-17T20:19:06.234Z,96806.88
2022-11-17T20:21:34.763Z,96810.88
2022-11-17T20:24:02.399Z,96817.19
2022-11-17T20:26:34.837Z,96815.59
2022-11-17T20:29:02.316Z,96822.78
2022-11-17T20:31:35.301Z,96817.25
2022-11-17T20:34:05.429Z,96825.28
2022-11-17T20:36:35.282Z,96806.84
2022-11-17T20:39:06.912Z,96827.06
2022-11-17T20:41:35.245Z,96830.22
2022-11-17T20:44:03.443Z,96842.94
2022-11-17T20:46:30.996Z,96837.41
2022-11-17T20:48:58.351Z,96841.72
2022-11-17T20:51:26.192Z,96842.47
2022-11-17T20:53:53.834Z,96848.34
2022-11-17T20:56:21.303Z,96851.81
2022-11-17T20:58:48.645Z,96850.69
2022-11-17T21:01:24.676Z,96852.34
2022-11-17T21:03:52.488Z,96851.06
2022-11-17T21:06:23.118Z,96849.97
2022-11-17T21:08:51.018Z,96855.69
2022-11-17T21:11:42.990Z,96858.63
2022-11-17T21:14:13.404Z,96839.31
2022-11-17T21:16:46.925Z,96862.25
2022-11-17T21:19:15.159Z,96861.81
2022-11-17T21:21:44.847Z,96861.41
2022-11-17T21:24:13.012Z,96860.59
2022-11-17T21:26:40.453Z,96861.59
2022-11-17T21:29:07.862Z,96852.78
2022-11-17T21:31:35.983Z,96853.75
2022-11-17T21:34:07.133Z,96857.25
2022-11-17T21:36:35.900Z,96856.88
2022-11-17T21:39:04.283Z,96860.88
2022-11-17T21:41:38.408Z,96861.94
2022-11-17T21:44:06.105Z,96856.72
2022-11-17T21:46:36.199Z,96858.06
2022-11-17T21:49:03.973Z,96860.16
2022-11-17T21:51:38.631Z,96860.81
2022-11-17T21:54:10.091Z,96849.06
2022-11-17T21:56:37.889Z,96849.84
2022-11-17T21:59:12.909Z,96841.72
2022-11-17T22:01:40.739Z,96847.56
2022-11-17T22:04:08.722Z,96843.59
2022-11-17T22:06:38.142Z,96847.06
2022-11-17T22:09:05.482Z,96830.50
2022-11-17T22:11:36.912Z,96834.78
2022-11-17T22:14:20.596Z,96835.31
2022-11-17T22:16:54.970Z,96830.63
2022-11-17T22:19:27.452Z,96829.38
2022-11-17T22:21:55.522Z,96829.38
2022-11-17T22:24:23.093Z,96827.44
2022-11-17T22:26:51.841Z,96826.28
2022-11-17T22:29:22.209Z,96823.47
2022-11-17T22:31:50.603Z,96816.44
2022-11-17T22:34:18.730Z,96815.38
2022-11-17T22:36:46.168Z,96824.81
2022-11-17T22:39:13.970Z,96827.09
2022-11-17T22:41:41.509Z,96817.66
2022-11-17T22:44:15.124Z,96830.22
2022-11-17T22:46:45.827Z,96834.22
2022-11-17T22:49:13.398Z,96820.44
2022-11-17T22:51:59.803Z,96826.38
2022-11-17T22:54:27.158Z,96833.47
2022-11-17T22:56:54.508Z,96818.56
2022-11-17T22:59:25.329Z,96827.22
2022-11-17T23:01:52.959Z,96828.72
2022-11-17T23:04:20.881Z,96824.88
2022-11-17T23:06:48.434Z,96832.63
2022-11-17T23:09:16.039Z,96839.06
2022-11-17T23:11:43.839Z,96843.00
2022-11-17T23:14:14.851Z,96849.69
2022-11-17T23:16:42.814Z,96853.19
2022-11-17T23:19:14.443Z,96854.28
2022-11-17T23:21:42.140Z,96857.50
2022-11-17T23:24:12.602Z,96864.41
2022-11-17T23:26:40.252Z,96867.69
2022-11-17T23:29:09.179Z,96871.31
2022-11-17T23:31:36.592Z,96873.66
2022-11-17T23:34:04.119Z,96870.06
2022-11-17T23:36:31.385Z,96875.84
2022-11-17T23:38:58.681Z,96869.69
2022-11-17T23:41:26.132Z,96880.34
2022-11-17T23:43:54.682Z,96863.44
2022-11-17T23:46:26.370Z,96874.06
2022-11-17T23:48:57.006Z,96885.19
2022-11-17T23:51:26.531Z,96880.38
2022-11-17T23:53:54.097Z,96878.13
2022-11-17T23:56:22.616Z,96873.56
2022-11-17T23:58:52.501Z,96879.44
